createdAt,value
2022-08-01T00:00:21.434Z,22.86193848
2022-08-01T00:01:22.249Z,22.85186768
2022-08-01T00:02:23.066Z,22.85186768
2022-08-01T00:03:24.333Z,22.86193848
2022-08-01T00:04:25.165Z,22.86193848
2022-08-01T00:05:26.066Z,22.82165527
2022-08-01T00:06:26.876Z,22.82165527
2022-08-01T00:07:27.626Z,22.78137207
2022-08-01T00:08:28.428Z,22.78137207
2022-08-01T00:09:30.000Z,22.74108887
2022-08-01T00:10:30.894Z,22.75115967
2022-08-01T00:11:31.711Z,22.72094727
2022-08-01T00:12:32.414Z,22.72094727
2022-08-01T00:13:33.218Z,22.67059326
2022-08-01T00:14:34.075Z,22.60009766
2022-08-01T00:15:34.995Z,22.55981445
2022-08-01T00:16:35.791Z,22.48931885
2022-08-01T00:18:06.951Z,22.51953125
2022-08-01T00:19:07.800Z,22.48931885
2022-08-01T00:20:09.457Z,22.48931885
2022-08-01T00:21:10.372Z,22.47924805
2022-08-01T00:22:11.146Z,22.45910645
2022-08-01T00:23:12.169Z,22.45910645
2022-08-01T00:24:14.316Z,22.47924805
2022-08-01T00:25:13.755Z,22.48931885
2022-08-01T00:26:14.660Z,22.53967285
2022-08-01T00:27:15.420Z,22.55981445
2022-08-01T00:28:16.808Z,22.56988525
2022-08-01T00:30:04.685Z,22.61016846
2022-08-01T00:30:18.941Z,22.59002686
2022-08-01T00:31:19.809Z,22.56988525
2022-08-01T00:32:20.651Z,22.53967285
2022-08-01T00:33:21.373Z,22.51953125
2022-08-01T00:34:22.976Z,22.53967285
2022-08-01T00:35:23.822Z,22.53967285
2022-08-01T00:36:24.660Z,22.53967285
2022-08-01T00:37:25.531Z,22.55981445
2022-08-01T00:38:26.237Z,22.55981445
2022-08-01T00:39:26.955Z,22.59002686
2022-08-01T00:40:28.396Z,22.55981445
2022-08-01T00:41:29.226Z,22.53967285
2022-08-01T00:42:29.970Z,22.53967285
2022-08-01T00:43:30.682Z,22.53967285
2022-08-01T00:44:31.414Z,22.55981445
2022-08-01T00:45:32.226Z,22.55981445
2022-08-01T00:46:33.045Z,22.51953125
2022-08-01T00:47:33.838Z,22.45910645
2022-08-01T00:48:34.615Z,22.44903564
2022-08-01T00:49:36.080Z,22.44903564
2022-08-01T00:51:07.937Z,22.47924805
2022-08-01T00:52:09.012Z,22.47924805
2022-08-01T00:53:09.604Z,22.45910645
2022-08-01T00:54:10.359Z,22.45910645
2022-08-01T00:55:15.074Z,22.41882324
2022-08-01T00:56:12.265Z,22.38861084
2022-08-01T00:57:13.118Z,22.40875244
2022-08-01T00:58:13.874Z,22.40875244
2022-08-01T00:59:14.876Z,22.40875244
2022-08-01T01:00:16.377Z,22.40875244
2022-08-01T01:01:17.307Z,22.37854004
2022-08-01T01:02:18.145Z,22.37854004
2022-08-01T01:03:18.934Z,22.35839844
2022-08-01T01:04:20.502Z,22.37854004
2022-08-01T01:05:21.250Z,22.38861084
2022-08-01T01:06:22.101Z,22.37854004
2022-08-01T01:07:23.005Z,22.34832764
2022-08-01T01:08:23.812Z,22.30804443
2022-08-01T01:09:24.561Z,22.28790283
2022-08-01T01:10:25.945Z,22.22747803
2022-08-01T01:11:26.778Z,22.19726563
2022-08-01T01:12:27.684Z,22.19726563
2022-08-01T01:13:28.463Z,22.19726563
2022-08-01T01:14:29.336Z,22.25769043
2022-08-01T01:15:29.952Z,22.22747803
2022-08-01T01:16:30.780Z,22.23754883
2022-08-01T01:17:50.990Z,22.22747803
2022-08-01T01:18:32.456Z,22.22747803
2022-08-01T01:19:33.185Z,22.20733643
2022-08-01T01:20:34.898Z,22.16705322
2022-08-01T01:22:06.602Z,22.14691162
2022-08-01T01:23:07.157Z,22.10662842
2022-08-01T01:24:07.834Z,22.13684082
2022-08-01T01:25:08.574Z,22.10662842
2022-08-01T01:26:09.386Z,22.08648682
2022-08-01T01:27:10.236Z,22.10662842
2022-08-01T01:28:11.403Z,22.11669922
2022-08-01T01:29:12.140Z,22.10662842
2022-08-01T01:30:13.503Z,22.14691162
2022-08-01T01:31:14.344Z,22.13684082
2022-08-01T01:32:15.195Z,22.16705322
2022-08-01T01:33:16.052Z,22.19726563
2022-08-01T01:34:17.499Z,22.13684082
2022-08-01T01:35:18.242Z,22.11669922
2022-08-01T01:36:19.030Z,22.08648682
2022-08-01T01:37:19.842Z,22.07641602
2022-08-01T01:38:20.758Z,22.04620361
2022-08-01T01:39:21.486Z,22.04620361
2022-08-01T01:40:22.991Z,22.03613281
2022-08-01T01:41:23.820Z,22.04620361
2022-08-01T01:42:24.682Z,22.01599121
2022-08-01T01:43:28.726Z,22.04620361
2022-08-01T01:44:26.332Z,22.07641602
2022-08-01T01:45:27.089Z,22.11669922
2022-08-01T01:46:27.887Z,22.10662842
2022-08-01T01:47:28.734Z,22.13684082
2022-08-01T01:48:29.593Z,22.10662842
2022-08-01T01:49:30.378Z,22.08648682
2022-08-01T01:50:31.869Z,22.07641602
2022-08-01T01:51:32.724Z,22.07641602
2022-08-01T01:52:34.441Z,22.01599121
2022-08-01T01:54:06.039Z,22.00592041
2022-08-01T01:55:06.729Z,22.03613281
2022-08-01T01:56:07.438Z,22.04620361
2022-08-01T01:57:08.280Z,22.07641602
2022-08-01T01:58:09.146Z,22.07641602
2022-08-01T01:59:09.973Z,22.10662842
2022-08-01T02:00:11.913Z,22.11669922
2022-08-01T02:01:14.765Z,22.10662842
2022-08-01T02:02:13.561Z,22.10662842
2022-08-01T02:03:14.090Z,22.11669922
2022-08-01T02:04:15.550Z,22.08648682
2022-08-01T02:05:16.264Z,22.01599121
2022-08-01T02:06:16.992Z,22.00592041
2022-08-01T02:07:17.839Z,22.00592041
2022-08-01T02:08:18.639Z,22.00592041
2022-08-01T02:09:20.430Z,22.01599121
2022-08-01T02:10:22.029Z,21.97570801
2022-08-01T02:11:22.730Z,21.95556641
2022-08-01T02:12:23.537Z,21.97570801
2022-08-01T02:13:24.360Z,21.925354
2022-08-01T02:14:25.190Z,21.8649292
2022-08-01T02:15:26.026Z,21.8649292
2022-08-01T02:16:26.554Z,21.8347168
2022-08-01T02:17:27.370Z,21.824646
2022-08-01T02:18:28.165Z,21.77429199
2022-08-01T02:19:28.993Z,21.73400879
2022-08-01T02:20:30.350Z,21.71386719
2022-08-01T02:21:31.918Z,21.71386719
2022-08-01T02:22:32.693Z,21.68365479
2022-08-01T02:23:33.544Z,21.67358398
2022-08-01T02:24:34.874Z,21.68365479
2022-08-01T02:26:09.238Z,21.68365479
2022-08-01T02:27:06.730Z,21.70379639
2022-08-01T02:28:07.567Z,21.71386719
2022-08-01T02:29:09.002Z,21.71386719
2022-08-01T02:30:10.475Z,21.70379639
2022-08-01T02:31:11.904Z,21.68365479
2022-08-01T02:32:12.711Z,21.70379639
2022-08-01T02:33:15.710Z,21.67358398
2022-08-01T02:34:14.958Z,21.68365479
2022-08-01T02:35:15.760Z,21.67358398
2022-08-01T02:36:31.205Z,21.68365479
2022-08-01T02:37:17.262Z,21.68365479
2022-08-01T02:38:18.136Z,21.70379639
2022-08-01T02:39:18.942Z,21.67358398
2022-08-01T02:40:20.550Z,21.66351318
2022-08-01T02:41:21.264Z,21.66351318
2022-08-01T02:42:22.901Z,21.66351318
2022-08-01T02:43:23.736Z,21.67358398
2022-08-01T02:44:24.606Z,21.66351318
2022-08-01T02:45:25.493Z,21.61315918
2022-08-01T02:46:26.270Z,21.63330078
2022-08-01T02:47:27.027Z,21.59301758
2022-08-01T02:48:27.866Z,21.56280518
2022-08-01T02:49:28.745Z,21.56280518
2022-08-01T02:50:30.539Z,21.56280518
2022-08-01T02:51:31.297Z,21.59301758
2022-08-01T02:52:32.064Z,21.61315918
2022-08-01T02:53:39.109Z,21.63330078
2022-08-01T02:54:33.760Z,21.66351318
2022-08-01T02:56:05.168Z,21.64337158
2022-08-01T02:57:06.687Z,21.64337158
2022-08-01T02:58:07.369Z,21.63330078
2022-08-01T02:59:08.236Z,21.64337158
2022-08-01T03:00:09.108Z,21.63330078
2022-08-01T03:01:11.079Z,21.61315918
2022-08-01T03:02:11.972Z,21.61315918
2022-08-01T03:03:12.681Z,21.55273438
2022-08-01T03:04:14.486Z,21.52252197
2022-08-01T03:05:15.321Z,21.51245117
2022-08-01T03:06:16.159Z,21.46209717
2022-08-01T03:07:16.921Z,21.45202637
2022-08-01T03:08:17.686Z,21.48223877
2022-08-01T03:09:18.556Z,21.51245117
2022-08-01T03:10:19.354Z,21.51245117
2022-08-01T03:11:21.049Z,21.49230957
2022-08-01T03:12:21.797Z,21.51245117
2022-08-01T03:13:22.512Z,21.46209717
2022-08-01T03:14:23.339Z,21.40167236
2022-08-01T03:15:24.178Z,21.40167236
2022-08-01T03:16:25.033Z,21.38153076
2022-08-01T03:17:25.807Z,21.40167236
2022-08-01T03:18:26.567Z,21.40167236
2022-08-01T03:19:27.376Z,21.40167236
2022-08-01T03:20:28.238Z,21.40167236
2022-08-01T03:21:29.969Z,21.40167236
2022-08-01T03:22:30.767Z,21.38153076
2022-08-01T03:23:37.950Z,21.38153076
2022-08-01T03:24:32.279Z,21.42181396
2022-08-01T03:25:33.108Z,21.43188477
2022-08-01T03:27:04.827Z,21.48223877
2022-08-01T03:28:05.531Z,21.51245117
2022-08-01T03:29:07.063Z,21.51245117
2022-08-01T03:30:07.875Z,21.49230957
2022-08-01T03:31:09.552Z,21.46209717
2022-08-01T03:32:10.453Z,21.43188477
2022-08-01T03:33:14.611Z,21.43188477
2022-08-01T03:34:12.173Z,21.43188477
2022-08-01T03:35:13.987Z,21.45202637
2022-08-01T03:36:14.823Z,21.43188477
2022-08-01T03:37:15.710Z,21.42181396
2022-08-01T03:38:16.780Z,21.46209717
2022-08-01T03:39:17.214Z,21.49230957
2022-08-01T03:40:18.024Z,21.49230957
2022-08-01T03:41:19.427Z,21.45202637
2022-08-01T03:42:20.270Z,21.43188477
2022-08-01T03:43:20.994Z,21.42181396
2022-08-01T03:44:21.738Z,21.40167236
2022-08-01T03:45:22.535Z,21.37145996
2022-08-01T03:46:25.315Z,21.36138916
2022-08-01T03:47:24.251Z,21.30096436
2022-08-01T03:48:25.426Z,21.24053955
2022-08-01T03:49:26.346Z,21.24053955
2022-08-01T03:50:27.018Z,21.26068115
2022-08-01T03:51:28.424Z,21.26068115
2022-08-01T03:52:29.199Z,21.24053955
2022-08-01T03:53:29.965Z,21.26068115
2022-08-01T03:54:30.733Z,21.27075195
2022-08-01T03:55:31.481Z,21.31103516
2022-08-01T03:56:32.244Z,21.31103516
2022-08-01T03:57:35.657Z,21.33117676
2022-08-01T03:59:04.239Z,21.28082275
2022-08-01T04:00:04.987Z,21.30096436
2022-08-01T04:01:06.583Z,21.30096436
2022-08-01T04:02:07.772Z,21.26068115
2022-08-01T04:03:08.095Z,21.27075195
2022-08-01T04:04:08.851Z,21.30096436
2022-08-01T04:05:10.393Z,21.28082275
2022-08-01T04:06:11.259Z,21.27075195
2022-08-01T04:07:12.194Z,21.26068115
2022-08-01T04:08:12.983Z,21.26068115
2022-08-01T04:09:14.001Z,21.24053955
2022-08-01T04:10:14.403Z,21.26068115
2022-08-01T04:11:16.022Z,21.24053955
2022-08-01T04:12:16.807Z,21.26068115
2022-08-01T04:13:17.604Z,21.26068115
2022-08-01T04:14:18.377Z,21.24053955
2022-08-01T04:15:19.132Z,21.24053955
2022-08-01T04:16:19.876Z,21.24053955
2022-08-01T04:17:20.611Z,21.27075195
2022-08-01T04:18:21.422Z,21.27075195
2022-08-01T04:19:22.147Z,21.26068115
2022-08-01T04:20:22.925Z,21.26068115
2022-08-01T04:21:24.561Z,21.26068115
2022-08-01T04:22:25.321Z,21.27075195
2022-08-01T04:23:26.282Z,21.27075195
2022-08-01T04:24:27.012Z,21.27075195
2022-08-01T04:25:27.757Z,21.30096436
2022-08-01T04:26:28.503Z,21.27075195
2022-08-01T04:27:50.393Z,21.24053955
2022-08-01T04:28:30.056Z,21.19018555
2022-08-01T04:29:30.786Z,21.14990234
2022-08-01T04:30:31.580Z,21.18011475
2022-08-01T04:31:33.371Z,21.11968994
2022-08-01T04:33:05.496Z,21.12976074
2022-08-01T04:34:06.157Z,21.11968994
2022-08-01T04:35:23.574Z,21.14990234
2022-08-01T04:36:07.704Z,21.14990234
2022-08-01T04:37:09.053Z,21.15997314
2022-08-01T04:38:09.840Z,21.14990234
2022-08-01T04:39:10.693Z,21.11968994
2022-08-01T04:40:41.597Z,21.07940674
2022-08-01T04:42:13.295Z,21.00891113
2022-08-01T04:43:15.113Z,20.97869873
2022-08-01T04:44:14.817Z,20.95855713
2022-08-01T04:45:15.527Z,20.99884033
2022-08-01T04:46:16.296Z,20.99884033
2022-08-01T04:47:17.066Z,20.99884033
2022-08-01T04:48:17.864Z,20.99884033
2022-08-01T04:49:18.714Z,21.00891113
2022-08-01T04:50:19.363Z,21.04919434
2022-08-01T04:51:21.034Z,21.08947754
2022-08-01T04:52:24.685Z,21.08947754
2022-08-01T04:53:22.575Z,21.11968994
2022-08-01T04:54:23.436Z,21.08947754
2022-08-01T04:55:24.157Z,21.11968994
2022-08-01T04:56:24.908Z,21.12976074
2022-08-01T04:57:25.636Z,21.12976074
2022-08-01T04:58:26.459Z,21.14990234
2022-08-01T04:59:27.240Z,21.19018555
2022-08-01T05:00:28.023Z,21.22039795
2022-08-01T05:01:29.659Z,21.21032715
2022-08-01T05:02:30.360Z,21.22039795
2022-08-01T05:03:35.866Z,21.22039795
2022-08-01T05:05:03.657Z,21.21032715
2022-08-01T05:06:04.378Z,21.22039795
2022-08-01T05:07:05.190Z,21.21032715
2022-08-01T05:08:05.987Z,21.21032715
2022-08-01T05:09:06.754Z,21.26068115
2022-08-01T05:10:07.541Z,21.28082275
2022-08-01T05:11:09.052Z,21.33117676
2022-08-01T05:12:09.831Z,21.36138916
2022-08-01T05:13:11.703Z,21.40167236
2022-08-01T05:14:12.521Z,21.42181396
2022-08-01T05:15:15.428Z,21.43188477
2022-08-01T05:16:14.040Z,21.45202637
2022-08-01T05:17:14.830Z,21.48223877
2022-08-01T05:18:15.592Z,21.46209717
2022-08-01T05:19:16.342Z,21.46209717
2022-08-01T05:20:17.147Z,21.48223877
2022-08-01T05:21:17.884Z,21.48223877
2022-08-01T05:22:19.450Z,21.51245117
2022-08-01T05:23:42.046Z,21.48223877
2022-08-01T05:24:21.029Z,21.49230957
2022-08-01T05:25:55.975Z,21.49230957
2022-08-01T05:26:22.568Z,21.55273438
2022-08-01T05:27:23.413Z,21.56280518
2022-08-01T05:28:24.205Z,21.56280518
2022-08-01T05:29:24.949Z,21.59301758
2022-08-01T05:30:26.619Z,21.64337158
2022-08-01T05:31:27.350Z,21.64337158
2022-08-01T05:32:28.946Z,21.64337158
2022-08-01T05:33:29.701Z,21.64337158
2022-08-01T05:34:30.475Z,21.63330078
2022-08-01T05:35:48.497Z,21.66351318
2022-08-01T05:36:32.010Z,21.71386719
2022-08-01T05:38:03.200Z,21.70379639
2022-08-01T05:39:03.937Z,21.73400879
2022-08-01T05:40:04.701Z,21.75415039
2022-08-01T05:41:05.519Z,21.75415039
2022-08-01T05:42:07.378Z,21.75415039
2022-08-01T05:43:07.775Z,21.75415039
2022-08-01T05:44:08.565Z,21.75415039
2022-08-01T05:45:09.334Z,21.77429199
2022-08-01T05:46:10.133Z,21.77429199
2022-08-01T05:47:10.826Z,21.77429199
2022-08-01T05:48:11.617Z,21.79443359
2022-08-01T05:49:12.509Z,21.75415039
2022-08-01T05:50:13.206Z,21.75415039
2022-08-01T05:51:13.970Z,21.77429199
2022-08-01T05:52:15.456Z,21.75415039
2022-08-01T05:53:16.193Z,21.75415039
2022-08-01T05:54:16.962Z,21.77429199
2022-08-01T05:55:17.733Z,21.77429199
2022-08-01T05:56:18.538Z,21.77429199
2022-08-01T05:57:19.300Z,21.824646
2022-08-01T05:58:20.076Z,21.824646
2022-08-01T05:59:20.887Z,21.8347168
2022-08-01T06:00:22.455Z,21.824646
2022-08-01T06:01:23.239Z,21.824646
2022-08-01T06:02:25.130Z,21.8347168
2022-08-01T06:03:25.697Z,21.8850708
2022-08-01T06:04:26.497Z,21.8850708
2022-08-01T06:05:27.963Z,21.8951416
2022-08-01T06:06:28.745Z,21.9052124
2022-08-01T06:07:29.474Z,21.925354
2022-08-01T06:08:30.268Z,21.9354248
2022-08-01T06:09:31.098Z,21.925354
2022-08-01T06:10:32.299Z,21.97570801
2022-08-01T06:12:04.574Z,21.97570801
2022-08-01T06:13:04.857Z,21.98577881
2022-08-01T06:14:05.612Z,22.00592041
2022-08-01T06:15:06.389Z,22.01599121
2022-08-01T06:16:07.190Z,22.03613281
2022-08-01T06:17:08.585Z,22.05627441
2022-08-01T06:18:09.407Z,22.08648682
2022-08-01T06:19:10.186Z,22.10662842
2022-08-01T06:20:10.956Z,22.11669922
2022-08-01T06:21:11.710Z,22.14691162
2022-08-01T06:22:13.103Z,22.14691162
2022-08-01T06:23:32.288Z,22.19726563
2022-08-01T06:24:14.613Z,22.19726563
2022-08-01T06:25:18.375Z,22.22747803
2022-08-01T06:26:16.200Z,22.20733643
2022-08-01T06:27:22.230Z,22.20733643
2022-08-01T06:28:17.768Z,22.20733643
2022-08-01T06:29:18.558Z,22.20733643
2022-08-01T06:30:19.370Z,22.22747803
2022-08-01T06:31:20.106Z,22.20733643
2022-08-01T06:32:27.543Z,22.23754883
2022-08-01T06:33:23.073Z,22.25769043
2022-08-01T06:34:23.862Z,22.25769043
2022-08-01T06:35:24.645Z,22.25769043
2022-08-01T06:36:25.412Z,22.28790283
2022-08-01T06:37:26.240Z,22.32818604
2022-08-01T06:38:26.941Z,22.34832764
2022-08-01T06:39:27.762Z,22.35839844
2022-08-01T06:40:28.527Z,22.38861084
2022-08-01T06:41:29.301Z,22.41882324
2022-08-01T06:42:31.001Z,22.43896484
2022-08-01T06:44:02.533Z,22.47924805
2022-08-01T06:45:03.273Z,22.45910645
2022-08-01T06:46:04.069Z,22.45910645
2022-08-01T06:47:05.581Z,22.45910645
2022-08-01T06:48:06.370Z,22.47924805
2022-08-01T06:49:07.147Z,22.47924805
2022-08-01T06:50:09.759Z,22.48931885
2022-08-01T06:51:09.356Z,22.48931885
2022-08-01T06:52:10.781Z,22.51953125
2022-08-01T06:53:11.645Z,22.55981445
2022-08-01T06:54:12.334Z,22.59002686
2022-08-01T06:55:13.116Z,22.59002686
2022-08-01T06:56:13.863Z,22.60009766
2022-08-01T06:57:14.644Z,22.63031006
2022-08-01T06:58:15.512Z,22.67059326
2022-08-01T06:59:16.300Z,22.74108887
2022-08-01T07:00:17.083Z,22.74108887
2022-08-01T07:01:17.873Z,22.70080566
2022-08-01T07:02:19.121Z,22.69073486
2022-08-01T07:03:20.491Z,22.69073486
2022-08-01T07:04:21.284Z,22.69073486
2022-08-01T07:05:22.558Z,22.69073486
2022-08-01T07:06:23.277Z,22.72094727
2022-08-01T07:07:24.040Z,22.75115967
2022-08-01T07:08:24.904Z,22.78137207
2022-08-01T07:09:26.611Z,22.84179688
2022-08-01T07:10:27.365Z,22.86193848
2022-08-01T07:11:28.142Z,22.91229248
2022-08-01T07:12:29.574Z,22.91229248
2022-08-01T07:13:43.962Z,23.00292969
2022-08-01T07:14:31.669Z,23.07342529
2022-08-01T07:16:02.856Z,23.07342529
2022-08-01T07:17:03.668Z,23.07342529
2022-08-01T07:18:04.470Z,23.07342529
2022-08-01T07:19:05.364Z,23.07342529
2022-08-01T07:20:06.424Z,23.07342529
2022-08-01T07:21:07.059Z,23.1137085
2022-08-01T07:22:08.857Z,23.1439209
2022-08-01T07:23:09.384Z,23.1640625
2022-08-01T07:24:13.606Z,23.1640625
2022-08-01T07:25:12.216Z,23.1842041
2022-08-01T07:26:12.994Z,23.1942749
2022-08-01T07:27:23.768Z,23.1842041
2022-08-01T07:28:14.619Z,23.2144165
2022-08-01T07:29:15.512Z,23.2244873
2022-08-01T07:30:16.394Z,23.23455811
2022-08-01T07:31:17.200Z,23.25469971
2022-08-01T07:32:18.598Z,23.26477051
2022-08-01T07:33:20.073Z,23.29498291
2022-08-01T07:34:20.913Z,23.33526611
2022-08-01T07:35:22.750Z,23.33526611
2022-08-01T07:36:23.428Z,23.33526611
2022-08-01T07:37:46.288Z,23.36547852
2022-08-01T07:38:24.996Z,23.33526611
2022-08-01T07:39:25.930Z,23.36547852
2022-08-01T07:40:26.722Z,23.36547852
2022-08-01T07:41:45.508Z,23.38562012
2022-08-01T07:42:29.123Z,23.40576172
2022-08-01T07:43:29.898Z,23.40576172
2022-08-01T07:44:30.777Z,23.41583252
2022-08-01T07:46:01.971Z,23.41583252
2022-08-01T07:47:02.804Z,23.44604492
2022-08-01T07:48:03.523Z,23.46618652
2022-08-01T07:49:04.385Z,23.49639893
2022-08-01T07:50:05.182Z,23.51654053
2022-08-01T07:51:06.021Z,23.52661133
2022-08-01T07:52:07.600Z,23.55682373
2022-08-01T07:53:08.329Z,23.56689453
2022-08-01T07:54:09.604Z,23.56689453
2022-08-01T07:55:10.586Z,23.56689453
2022-08-01T07:56:11.608Z,23.58703613
2022-08-01T07:57:12.452Z,23.59710693
2022-08-01T07:58:13.255Z,23.59710693
2022-08-01T07:59:14.067Z,23.59710693
2022-08-01T08:00:14.933Z,23.62731934
2022-08-01T08:01:16.562Z,23.63739014
2022-08-01T08:02:17.481Z,23.66760254
2022-08-01T08:03:18.951Z,23.67767334
2022-08-01T08:04:19.793Z,23.70788574
2022-08-01T08:05:57.905Z,23.71795654
2022-08-01T08:06:21.619Z,23.73809814
2022-08-01T08:07:22.288Z,23.73809814
2022-08-01T08:08:23.066Z,23.74816895
2022-08-01T08:09:23.911Z,23.76831055
2022-08-01T08:10:24.743Z,23.76831055
2022-08-01T08:11:26.123Z,23.78845215
2022-08-01T08:12:28.656Z,23.81866455
2022-08-01T08:13:28.509Z,23.85894775
2022-08-01T08:14:32.843Z,23.86901855
2022-08-01T08:15:30.162Z,23.89923096
2022-08-01T08:17:01.838Z,23.89923096
2022-08-01T08:18:02.705Z,23.89923096
2022-08-01T08:19:03.461Z,23.93951416
2022-08-01T08:20:04.249Z,23.93951416
2022-08-01T08:21:06.907Z,23.95965576
2022-08-01T08:22:06.430Z,23.98986816
2022-08-01T08:23:07.587Z,23.99993896
2022-08-01T08:24:08.437Z,24.02008057
2022-08-01T08:25:09.219Z,24.05029297
2022-08-01T08:26:10.073Z,24.06036377
2022-08-01T08:27:10.913Z,24.08050537
2022-08-01T08:28:11.754Z,24.06036377
2022-08-01T08:29:12.553Z,24.11071777
2022-08-01T08:30:13.280Z,24.09057617
2022-08-01T08:31:25.285Z,24.11071777
2022-08-01T08:32:14.999Z,24.14093018
2022-08-01T08:33:16.553Z,24.14093018
2022-08-01T08:34:17.379Z,24.15100098
2022-08-01T08:35:23.122Z,24.16107178
2022-08-01T08:36:19.538Z,24.19128418
2022-08-01T08:37:20.626Z,24.21142578
2022-08-01T08:38:21.218Z,24.23156738
2022-08-01T08:39:21.999Z,24.21142578
2022-08-01T08:40:22.729Z,24.23156738
2022-08-01T08:41:23.587Z,24.24163818
2022-08-01T08:42:24.405Z,24.26177979
2022-08-01T08:43:26.247Z,24.26177979
2022-08-01T08:44:27.031Z,24.29199219
2022-08-01T08:45:52.193Z,24.29199219
2022-08-01T08:46:28.573Z,24.30206299
2022-08-01T08:47:29.384Z,24.31213379
2022-08-01T08:48:31.622Z,24.36248779
2022-08-01T08:50:02.791Z,24.37255859
2022-08-01T08:51:03.567Z,24.37255859
2022-08-01T08:52:04.858Z,24.4128418
2022-08-01T08:53:06.606Z,24.4128418
2022-08-01T08:54:06.948Z,24.4430542
2022-08-01T08:55:07.681Z,24.453125
2022-08-01T08:56:08.521Z,24.4833374
2022-08-01T08:57:09.400Z,24.5135498
2022-08-01T08:58:10.174Z,24.52362061
2022-08-01T08:59:11.006Z,24.52362061
2022-08-01T09:00:12.109Z,24.55383301
2022-08-01T09:01:12.835Z,24.55383301
2022-08-01T09:02:14.260Z,24.56390381
2022-08-01T09:03:15.828Z,24.60418701
2022-08-01T09:04:16.653Z,24.60418701
2022-08-01T09:05:19.528Z,24.61425781
2022-08-01T09:06:18.231Z,24.64447021
2022-08-01T09:07:19.107Z,24.66461182
2022-08-01T09:08:19.903Z,24.67468262
2022-08-01T09:09:20.803Z,24.68475342
2022-08-01T09:10:22.180Z,24.71496582
2022-08-01T09:11:23.357Z,24.71496582
2022-08-01T09:12:23.774Z,24.74517822
2022-08-01T09:13:25.129Z,24.76531982
2022-08-01T09:14:26.005Z,24.78546143
2022-08-01T09:15:26.801Z,24.79553223
2022-08-01T09:16:27.556Z,24.81567383
2022-08-01T09:17:28.359Z,24.82574463
2022-08-01T09:18:29.165Z,24.85595703
2022-08-01T09:19:40.171Z,24.88616943
2022-08-01T09:21:01.706Z,24.89624023
2022-08-01T09:22:02.524Z,24.92645264
2022-08-01T09:23:04.333Z,24.93652344
2022-08-01T09:24:05.004Z,24.93652344
2022-08-01T09:25:05.911Z,24.96673584
2022-08-01T09:26:06.672Z,24.96673584
2022-08-01T09:27:07.422Z,24.96673584
2022-08-01T09:28:08.256Z,24.97680664
2022-08-01T09:29:10.385Z,24.98687744
2022-08-01T09:30:09.925Z,24.98687744
2022-08-01T09:31:11.681Z,25.01708984
2022-08-01T09:32:16.146Z,25.01708984
2022-08-01T09:33:18.088Z,25.03723145
2022-08-01T09:34:14.981Z,25.03723145
2022-08-01T09:35:15.798Z,25.04730225
2022-08-01T09:36:16.566Z,25.07751465
2022-08-01T09:37:18.092Z,25.07751465
2022-08-01T09:38:19.155Z,25.08758545
2022-08-01T09:39:19.670Z,25.08758545
2022-08-01T09:40:20.490Z,25.11779785
2022-08-01T09:41:21.335Z,25.11779785
2022-08-01T09:42:29.203Z,25.13793945
2022-08-01T09:43:23.690Z,25.15808105
2022-08-01T09:44:39.925Z,25.16815186
2022-08-01T09:45:26.224Z,25.18829346
2022-08-01T09:46:28.519Z,25.18829346
2022-08-01T09:47:27.583Z,25.19836426
2022-08-01T09:48:29.676Z,25.22857666
2022-08-01T09:49:29.216Z,25.26885986
2022-08-01T09:51:07.169Z,25.26885986
2022-08-01T09:52:01.802Z,25.28900146
2022-08-01T09:53:02.545Z,25.30914307
2022-08-01T09:54:04.051Z,25.30914307
2022-08-01T09:55:04.877Z,25.30914307
2022-08-01T09:56:05.674Z,25.34942627
2022-08-01T09:57:07.539Z,25.34942627
2022-08-01T09:58:07.845Z,25.35949707
2022-08-01T09:59:08.691Z,25.38970947
2022-08-01T10:00:09.968Z,25.41992188
2022-08-01T10:01:10.332Z,25.44006348
2022-08-01T10:02:11.102Z,25.44006348
2022-08-01T10:03:12.173Z,25.46020508
2022-08-01T10:04:13.541Z,25.46020508
2022-08-01T10:05:18.855Z,25.48034668
2022-08-01T10:06:15.148Z,25.49041748
2022-08-01T10:07:15.942Z,25.49041748
2022-08-01T10:08:16.638Z,25.53070068
2022-08-01T10:09:17.431Z,25.53070068
2022-08-01T10:10:18.230Z,25.54077148
2022-08-01T10:11:19.032Z,25.56091309
2022-08-01T10:12:19.763Z,25.56091309
2022-08-01T10:13:21.128Z,25.56091309
2022-08-01T10:14:22.037Z,25.59112549
2022-08-01T10:15:22.828Z,25.59112549
2022-08-01T10:16:23.642Z,25.60119629
2022-08-01T10:17:24.438Z,25.60119629
2022-08-01T10:18:26.316Z,25.63140869
2022-08-01T10:19:29.040Z,25.63140869
2022-08-01T10:20:30.417Z,25.64147949
2022-08-01T10:21:56.899Z,25.64147949
2022-08-01T10:22:29.752Z,25.66162109
2022-08-01T10:24:03.282Z,25.66162109
2022-08-01T10:25:02.366Z,25.6918335
2022-08-01T10:26:03.165Z,25.7119751
2022-08-01T10:27:05.910Z,25.7119751
2022-08-01T10:28:04.760Z,25.7522583
2022-08-01T10:29:05.529Z,25.7522583
2022-08-01T10:30:15.457Z,25.7824707
2022-08-01T10:31:12.446Z,25.81268311
2022-08-01T10:32:08.959Z,25.82275391
2022-08-01T10:33:09.802Z,25.83282471
2022-08-01T10:34:11.712Z,25.83282471
2022-08-01T10:35:15.312Z,25.86303711
2022-08-01T10:36:13.500Z,25.89324951
2022-08-01T10:37:14.251Z,25.86303711
2022-08-01T10:38:15.646Z,25.85296631
2022-08-01T10:39:19.995Z,25.90332031
2022-08-01T10:40:29.909Z,25.90332031
2022-08-01T10:41:18.043Z,25.91339111
2022-08-01T10:42:18.841Z,25.93353271
2022-08-01T10:43:21.623Z,25.94360352
2022-08-01T10:44:21.045Z,25.96374512
2022-08-01T10:45:21.951Z,25.96374512
2022-08-01T10:46:22.768Z,25.97381592
2022-08-01T10:47:26.222Z,26.01409912
2022-08-01T10:48:24.543Z,26.03424072
2022-08-01T10:49:25.187Z,26.04431152
2022-08-01T10:50:26.413Z,26.08459473
2022-08-01T10:51:51.442Z,26.11480713
2022-08-01T10:52:28.695Z,26.12487793
2022-08-01T10:54:00.767Z,26.13494873
2022-08-01T10:55:01.555Z,26.13494873
2022-08-01T10:56:03.123Z,26.15509033
2022-08-01T10:57:03.832Z,26.16516113
2022-08-01T10:58:03.984Z,26.18530273
2022-08-01T10:59:06.231Z,26.18530273
2022-08-01T11:00:05.598Z,26.19537354
2022-08-01T11:01:06.499Z,26.20544434
2022-08-01T11:02:07.243Z,26.20544434
2022-08-01T11:03:07.969Z,26.20544434
2022-08-01T11:04:13.946Z,26.23565674
2022-08-01T11:05:11.166Z,26.26586914
2022-08-01T11:06:12.251Z,26.26586914
2022-08-01T11:07:13.058Z,26.27593994
2022-08-01T11:08:13.774Z,26.28601074
2022-08-01T11:09:16.387Z,26.30615234
2022-08-01T11:10:15.302Z,26.33636475